Time;durP1;ratioP1;P1;durP2;ratioP2;P2;SDS_P1;SDS_P2;PMS_P1;PMS_P2;Temp;Humidity;BMP_temperature;BMP_pressure;BME280_temperature;BME280_humidity;BME280_pressure;Samples;Min_cycle;Max_cycle;Signal;HPM_P1;HPM_P2
2022/07/08 00:01:33;;;;;;;7.57;3.00;;;17.20;92.10;;;;;;4981644;28;20060;-74
2022/07/08 00:04:01;;;;;;;8.57;2.97;;;17.20;92.20;;;;;;5016221;28;20061;-74
2022/07/08 00:06:29;;;;;;;6.85;2.75;;;17.20;92.30;;;;;;5016197;28;20042;-74
2022/07/08 00:08:56;;;;;;;6.57;2.85;;;17.20;92.30;;;;;;4997542;28;20511;-74
2022/07/08 00:11:24;;;;;;;5.82;3.10;;;17.10;92.40;;;;;;5015766;28;20472;-74
2022/07/08 00:13:54;;;;;;;8.65;2.90;;;17.10;92.40;;;;;;5014635;28;20053;-74
2022/07/08 00:16:22;;;;;;;8.48;3.20;;;17.10;92.50;;;;;;5015703;28;20381;-74
2022/07/08 00:18:49;;;;;;;7.82;3.00;;;17.10;92.60;;;;;;4983042;28;20045;-74
2022/07/08 00:21:17;;;;;;;7.05;2.97;;;16.90;92.50;;;;;;5014598;28;20057;-74
2022/07/08 00:23:45;;;;;;;7.30;2.80;;;17.00;92.60;;;;;;4982974;28;20372;-74
2022/07/08 00:26:13;;;;;;;9.57;2.80;;;17.00;92.70;;;;;;5015414;28;20050;-74
2022/07/08 00:28:40;;;;;;;;;;;17.00;92.80;;;;;;4997796;28;20057;-74
2022/07/08 00:31:08;;;;;;;8.30;2.78;;;17.00;93.30;;;;;;4998385;28;19929;-74
2022/07/08 00:33:36;;;;;;;8.98;3.10;;;16.90;92.70;;;;;;5014473;28;20053;-74
2022/07/08 00:36:04;;;;;;;12.05;3.10;;;16.90;92.80;;;;;;4982332;28;20057;-74
2022/07/08 00:38:31;;;;;;;8.82;2.95;;;16.90;92.80;;;;;;5015257;28;20050;-74
2022/07/08 00:40:59;;;;;;;8.82;3.15;;;16.90;92.80;;;;;;4997429;28;20057;-74
2022/07/08 00:43:37;;;;;;;7.57;2.58;;;16.80;92.90;;;;;;4998427;28;20061;-74
2022/07/08 00:46:07;;;;;;;6.07;2.40;;;16.80;93.00;;;;;;5014535;28;20392;-74
2022/07/08 00:48:36;;;;;;;9.23;2.92;;;16.80;93.00;;;;;;5014181;28;20052;-74
2022/07/08 00:51:06;;;;;;;7.35;2.95;;;16.80;93.10;;;;;;4998432;28;20037;-74
2022/07/08 00:53:38;;;;;;;10.32;3.08;;;16.70;93.10;;;;;;5014226;28;21000;-73
2022/07/08 00:56:07;;;;;;;11.98;3.08;;;16.70;93.20;;;;;;4997888;28;20046;-74
2022/07/08 00:58:35;;;;;;;8.07;3.10;;;16.70;93.30;;;;;;4998008;28;20046;-74
2022/07/08 01:01:03;;;;;;;8.73;3.13;;;16.70;93.30;;;;;;5014064;28;20376;-73
2022/07/08 01:03:31;;;;;;;7.70;2.95;;;16.70;93.40;;;;;;4997931;28;20045;-74
2022/07/08 01:05:59;;;;;;;7.00;2.92;;;16.60;93.40;;;;;;5014893;28;20479;-74
2022/07/08 01:08:27;;;;;;;10.15;3.38;;;16.60;93.40;;;;;;4996879;28;20065;-74
2022/07/08 01:10:56;;;;;;;10.55;2.90;;;16.60;93.50;;;;;;4997648;28;20060;-74
2022/07/08 01:13:24;;;;;;;11.65;3.28;;;16.60;93.50;;;;;;5014266;28;20045;-74
2022/07/08 01:15:52;;;;;;;6.70;2.47;;;16.50;93.60;;;;;;5014828;28;20372;-74
2022/07/08 01:18:21;;;;;;;6.20;3.08;;;16.50;93.60;;;;;;5014964;28;20049;-74
2022/07/08 01:20:50;;;;;;;10.93;3.10;;;16.50;93.60;;;;;;4980793;28;20050;-74
2022/07/08 01:23:18;;;;;;;7.72;2.92;;;16.50;93.90;;;;;;5014803;28;20041;-74
2022/07/08 01:25:47;;;;;;;7.95;3.80;;;16.40;93.70;;;;;;5015689;28;20053;-74
2022/07/08 01:28:15;;;;;;;7.68;3.13;;;16.50;93.80;;;;;;5013970;28;20361;-74
2022/07/08 01:30:43;;;;;;;12.68;3.33;;;16.40;93.70;;;;;;4998186;28;20049;-74
2022/07/08 01:33:11;;;;;;;7.10;3.03;;;16.40;93.80;;;;;;5014367;28;20073;-74
2022/07/08 01:35:39;;;;;;;7.38;2.80;;;16.40;93.90;;;;;;5013711;28;20046;-73
2022/07/08 01:38:06;;;;;;;12.57;3.28;;;16.30;93.90;;;;;;5014866;28;20057;-74
2022/07/08 01:40:35;;;;;;;8.45;3.30;;;16.30;93.80;;;;;;4996515;28;20058;-74
2022/07/08 01:43:03;;;;;;;6.43;2.80;;;16.30;93.90;;;;;;5014979;28;20050;-74
2022/07/08 01:45:30;;;;;;;6.78;3.10;;;16.20;93.90;;;;;;4997803;28;20046;-74
2022/07/08 01:47:58;;;;;;;8.90;3.10;;;16.20;94.00;;;;;;4996508;28;20046;-74
2022/07/08 01:50:25;;;;;;;5.63;2.72;;;16.20;94.00;;;;;;5015248;28;20437;-74
2022/07/08 01:52:53;;;;;;;7.97;2.92;;;16.20;94.00;;;;;;5014472;28;20046;-74
2022/07/08 01:55:21;;;;;;;8.13;2.92;;;16.20;94.00;;;;;;5013617;28;20065;-74
2022/07/08 01:57:49;;;;;;;8.00;3.20;;;16.20;94.00;;;;;;5017121;28;20046;-74
2022/07/08 02:00:17;;;;;;;7.38;2.67;;;16.10;94.00;;;;;;5000093;28;20057;-74
2022/07/08 02:02:45;;;;;;;;;;;16.10;94.10;;;;;;5018509;28;20046;-74
2022/07/08 02:05:14;;;;;;;5.90;2.85;;;16.00;94.50;;;;;;5018833;28;20233;-74
2022/07/08 02:07:42;;;;;;;9.50;2.90;;;16.00;94.00;;;;;;5017296;28;20042;-74
2022/07/08 02:10:10;;;;;;;8.02;3.10;;;16.00;94.10;;;;;;4985047;28;20388;-74
2022/07/08 02:12:38;;;;;;;5.05;3.15;;;15.90;94.20;;;;;;5017947;28;20058;-74
2022/07/08 02:15:08;;;;;;;6.97;3.08;;;15.90;94.40;;;;;;4999954;28;20130;-74
2022/07/08 02:17:39;;;;;;;7.95;3.15;;;15.80;94.40;;;;;;5000687;28;20353;-73
2022/07/08 02:20:11;;;;;;;7.85;3.17;;;15.80;94.40;;;;;;5000071;28;20126;-74
2022/07/08 02:22:40;;;;;;;6.20;3.30;;;15.80;94.40;;;;;;5017926;28;20050;-74
2022/07/08 02:25:09;;;;;;;9.07;3.20;;;15.80;94.40;;;;;;5017962;28;20053;-74
2022/07/08 02:27:37;;;;;;;7.22;3.08;;;15.80;94.30;;;;;;4999880;28;20246;-74
2022/07/08 02:30:05;;;;;;;7.55;3.13;;;15.80;94.40;;;;;;5017609;28;20469;-74
2022/07/08 02:32:33;;;;;;;8.95;3.15;;;15.80;94.30;;;;;;5017585;28;20365;-74
2022/07/08 02:35:01;;;;;;;9.35;3.10;;;15.80;94.40;;;;;;5016580;28;20346;-73
2022/07/08 02:37:28;;;;;;;8.18;3.45;;;15.70;94.40;;;;;;5000360;28;20483;-74
2022/07/08 02:39:56;;;;;;;9.70;3.63;;;15.70;94.30;;;;;;5017079;28;20357;-74
2022/07/08 02:42:24;;;;;;;7.43;3.38;;;15.70;94.40;;;;;;5017438;28;20065;-74
2022/07/08 02:44:52;;;;;;;10.07;3.45;;;15.70;94.40;;;;;;5017344;28;20057;-74
2022/07/08 02:47:19;;;;;;;5.38;3.20;;;15.60;94.40;;;;;;5016473;28;20050;-74
2022/07/08 02:49:47;;;;;;;9.95;3.10;;;15.60;94.40;;;;;;5017743;28;20050;-74
2022/07/08 02:52:15;;;;;;;8.80;3.45;;;15.60;94.40;;;;;;5017503;28;20053;-74
2022/07/08 02:54:42;;;;;;;7.72;3.65;;;15.60;94.50;;;;;;5016460;28;20042;-74
2022/07/08 02:57:10;;;;;;;7.95;3.42;;;15.60;94.40;;;;;;5017041;28;20065;-74
2022/07/08 02:59:37;;;;;;;9.75;3.60;;;15.60;94.40;;;;;;5016991;28;20057;-74
2022/07/08 03:02:05;;;;;;;6.85;3.40;;;15.50;94.40;;;;;;5016361;28;20045;-74
2022/07/08 03:04:41;;;;;;;7.82;3.70;;;15.50;94.50;;;;;;5016939;28;20065;-73
2022/07/08 03:07:09;;;;;;;10.95;3.40;;;15.50;94.50;;;;;;4999489;28;20057;-74
2022/07/08 03:09:36;;;;;;;7.53;4.00;;;15.40;94.60;;;;;;5015968;28;20456;-73
2022/07/08 03:12:05;;;;;;;10.20;3.25;;;15.40;94.60;;;;;;4999838;28;20041;-74
2022/07/08 03:14:32;;;;;;;9.77;3.47;;;15.30;94.60;;;;;;4998706;28;20041;-74
2022/07/08 03:17:00;;;;;;;9.35;3.88;;;15.30;94.70;;;;;;5017017;28;20128;-74
2022/07/08 03:19:27;;;;;;;7.20;3.58;;;15.30;94.70;;;;;;5000120;28;20057;-73
2022/07/08 03:21:55;;;;;;;10.00;3.90;;;15.20;94.70;;;;;;5015757;28;20054;-73
2022/07/08 03:24:23;;;;;;;8.73;3.25;;;15.30;94.70;;;;;;5000263;28;20467;-73
2022/07/08 03:26:51;;;;;;;7.97;3.63;;;15.20;94.70;;;;;;4999145;28;20394;-74
2022/07/08 03:29:18;;;;;;;7.18;3.63;;;15.10;94.80;;;;;;5016672;28;20076;-74
2022/07/08 03:31:46;;;;;;;9.80;3.88;;;15.10;95.00;;;;;;4983073;28;20046;-74
2022/07/08 03:34:14;;;;;;;6.30;3.65;;;15.10;94.90;;;;;;5015615;28;20053;-74
2022/07/08 03:36:42;;;;;;;6.45;3.70;;;15.10;94.90;;;;;;5016477;28;20050;-73
2022/07/08 03:39:09;;;;;;;8.60;4.22;;;15.00;94.90;;;;;;5016382;28;20060;-74
2022/07/08 03:41:37;;;;;;;8.95;4.15;;;15.00;95.00;;;;;;5015751;28;20072;-74
2022/07/08 03:44:04;;;;;;;9.55;4.50;;;15.00;95.00;;;;;;5016764;28;20050;-74
2022/07/08 03:46:32;;;;;;;;;;;15.00;95.00;;;;;;5016839;28;20503;-74
2022/07/08 03:49:00;;;;;;;13.32;4.35;;;15.00;95.60;;;;;;5015845;28;19944;-73
2022/07/08 03:51:28;;;;;;;10.07;4.60;;;15.00;95.10;;;;;;5016613;28;20353;-74
2022/07/08 03:53:56;;;;;;;8.60;4.15;;;14.90;95.00;;;;;;4982325;28;20046;-74
2022/07/08 03:56:23;;;;;;;7.97;4.13;;;14.90;95.20;;;;;;5016560;28;20042;-74
2022/07/08 03:58:51;;;;;;;13.52;4.47;;;14.90;95.20;;;;;;5015922;28;20053;-74
2022/07/08 04:01:19;;;;;;;9.02;4.68;;;14.90;95.20;;;;;;4998032;28;20388;-74
2022/07/08 04:03:46;;;;;;;7.43;4.43;;;14.90;95.20;;;;;;5015835;28;20054;-74
2022/07/08 04:06:14;;;;;;;6.97;4.15;;;14.90;95.20;;;;;;5016061;28;20050;-74
2022/07/08 04:08:42;;;;;;;8.38;4.30;;;14.80;95.30;;;;;;4997903;28;20042;-74
2022/07/08 04:11:11;;;;;;;10.48;4.88;;;14.80;95.40;;;;;;5015745;28;20373;-74
2022/07/08 04:13:39;;;;;;;10.80;4.82;;;14.70;95.70;;;;;;5015288;28;20050;-73
2022/07/08 04:16:13;;;;;;;;;;;14.70;95.50;;;;;;4982847;28;20050;-74
2022/07/08 04:18:41;;;;;;;13.23;4.88;;;14.70;96.10;;;;;;4966240;28;19921;-74
2022/07/08 04:21:10;;;;;;;11.30;4.80;;;14.70;95.70;;;;;;4997195;28;20061;-74
2022/07/08 04:23:38;;;;;;;;;;;14.70;95.70;;;;;;4999115;28;20046;-74
2022/07/08 04:26:05;;;;;;;;;;;14.70;96.00;;;;;;5016079;28;19929;-74
2022/07/08 04:28:34;;;;;;;8.80;4.70;;;14.60;96.00;;;;;;4997399;28;20358;-74
2022/07/08 04:31:01;;;;;;;10.10;5.05;;;14.60;95.80;;;;;;4998185;28;20045;-74
2022/07/08 04:33:29;;;;;;;10.00;5.25;;;14.60;95.70;;;;;;5014477;28;20064;-74
2022/07/08 04:35:57;;;;;;;8.00;5.07;;;14.60;95.70;;;;;;4998340;28;20484;-74
2022/07/08 04:38:24;;;;;;;11.32;5.43;;;14.60;95.80;;;;;;5015231;28;20049;-74
2022/07/08 04:40:53;;;;;;;10.13;4.88;;;14.60;95.80;;;;;;5014378;28;20487;-74
2022/07/08 04:43:20;;;;;;;8.80;4.75;;;14.60;95.90;;;;;;5015200;28;20065;-74
2022/07/08 04:45:49;;;;;;;9.70;4.80;;;14.70;95.90;;;;;;5015223;28;20481;-74
2022/07/08 04:48:17;;;;;;;8.90;4.85;;;14.70;95.80;;;;;;5014299;28;20048;-75
2022/07/08 04:50:44;;;;;;;9.85;5.10;;;14.70;95.80;;;;;;4998338;28;20461;-74
2022/07/08 04:53:12;;;;;;;11.40;5.13;;;14.70;95.70;;;;;;5015754;28;20064;-74
2022/07/08 04:55:39;;;;;;;9.77;5.47;;;14.80;95.80;;;;;;5014414;28;20372;-74
2022/07/08 04:58:07;;;;;;;9.98;5.10;;;14.80;95.80;;;;;;5015626;28;20564;-74
2022/07/08 05:00:35;;;;;;;8.93;4.90;;;14.80;95.90;;;;;;5014115;28;20050;-74
2022/07/08 05:03:03;;;;;;;10.02;4.95;;;14.70;95.90;;;;;;5014975;28;20354;-74
2022/07/08 05:05:31;;;;;;;10.25;5.15;;;14.80;95.90;;;;;;4998412;28;20065;-74
2022/07/08 05:07:59;;;;;;;11.82;5.45;;;14.80;95.90;;;;;;5014233;28;20392;-74
2022/07/08 05:10:27;;;;;;;;;;;14.80;95.90;;;;;;5015191;28;20061;-74
2022/07/08 05:12:55;;;;;;;;;;;14.80;96.10;;;;;;5015588;28;19921;-74
2022/07/08 05:15:23;;;;;;;11.25;5.38;;;14.80;96.10;;;;;;5013825;28;19929;-74
2022/07/08 05:17:55;;;;;;;11.45;5.40;;;14.80;95.90;;;;;;5014976;28;20108;-74
2022/07/08 05:20:23;;;;;;;10.32;6.07;;;14.90;96.20;;;;;;4996558;28;20388;-74
2022/07/08 05:22:50;;;;;;;16.75;6.40;;;14.90;96.00;;;;;;5015097;28;20057;-75
2022/07/08 05:25:18;;;;;;;10.75;6.03;;;14.90;96.00;;;;;;5014686;28;20369;-75
2022/07/08 05:27:46;;;;;;;12.55;6.63;;;14.90;96.10;;;;;;5013667;28;20054;-74
2022/07/08 05:30:14;;;;;;;8.65;5.85;;;15.00;96.10;;;;;;5014894;28;20042;-75
2022/07/08 05:32:42;;;;;;;13.15;6.18;;;15.00;96.10;;;;;;4996925;28;20056;-74
2022/07/08 05:35:10;;;;;;;9.93;5.97;;;15.10;96.10;;;;;;5037235;28;20049;-75
2022/07/08 05:37:38;;;;;;;11.55;6.15;;;15.10;96.20;;;;;;5037882;28;20053;-75
2022/07/08 05:40:10;;;;;;;16.90;6.88;;;15.20;96.20;;;;;;5036313;28;20048;-75
2022/07/08 05:42:38;;;;;;;12.85;6.40;;;15.20;96.20;;;;;;5038468;28;20472;-75
2022/07/08 05:45:07;;;;;;;11.77;6.50;;;15.30;96.20;;;;;;5038399;28;20456;-74
2022/07/08 05:47:35;;;;;;;13.80;6.63;;;15.30;96.20;;;;;;5036899;28;20495;-75
2022/07/08 05:50:04;;;;;;;13.48;7.10;;;15.40;96.20;;;;;;5037180;28;20052;-75
2022/07/08 05:52:31;;;;;;;12.20;6.75;;;15.40;96.50;;;;;;5038922;28;20041;-75
2022/07/08 05:54:59;;;;;;;12.95;7.35;;;15.50;96.20;;;;;;5036185;28;20053;-74
2022/07/08 05:57:27;;;;;;;16.05;7.72;;;15.50;96.30;;;;;;5037893;28;20045;-75
2022/07/08 05:59:54;;;;;;;16.33;9.82;;;15.60;96.30;;;;;;5020759;28;20056;-75
2022/07/08 06:02:22;;;;;;;18.33;9.68;;;15.60;96.40;;;;;;5020351;28;20060;-75
2022/07/08 06:04:50;;;;;;;18.48;10.85;;;15.70;96.40;;;;;;5038334;28;20427;-74
2022/07/08 06:07:17;;;;;;;22.17;10.68;;;15.70;96.40;;;;;;5036675;28;20049;-74
2022/07/08 06:09:46;;;;;;;18.30;9.90;;;15.80;96.50;;;;;;5037587;28;20057;-74
2022/07/08 06:12:13;;;;;;;18.80;10.98;;;15.80;96.50;;;;;;5037924;28;20049;-74
2022/07/08 06:14:41;;;;;;;18.70;11.13;;;15.80;96.40;;;;;;5036490;28;20405;-74
2022/07/08 06:17:09;;;;;;;18.20;10.60;;;15.90;96.40;;;;;;5036697;28;20376;-74
2022/07/08 06:19:36;;;;;;;17.92;11.05;;;15.90;96.40;;;;;;5037481;28;20053;-74
2022/07/08 06:22:04;;;;;;;20.10;11.20;;;15.90;96.30;;;;;;5035772;28;20041;-74
2022/07/08 06:24:32;;;;;;;18.60;10.63;;;16.60;96.50;;;;;;5036912;28;20388;-74
2022/07/08 06:27:00;;;;;;;17.40;9.95;;;16.00;96.40;;;;;;5036469;28;20375;-74
2022/07/08 06:29:27;;;;;;;19.42;10.18;;;16.10;96.50;;;;;;5037261;28;20053;-74
2022/07/08 06:31:55;;;;;;;15.35;9.75;;;16.10;96.40;;;;;;5035956;28;20065;-74
2022/07/08 06:34:23;;;;;;;16.75;9.55;;;16.20;96.40;;;;;;4999538;28;20046;-74
2022/07/08 06:36:51;;;;;;;16.77;9.40;;;16.20;96.30;;;;;;5017727;28;20050;-74
2022/07/08 06:39:18;;;;;;;17.55;9.75;;;16.30;96.20;;;;;;5017655;28;20062;-74
2022/07/08 06:41:46;;;;;;;16.40;9.63;;;16.30;96.20;;;;;;4999104;28;20038;-74
2022/07/08 06:44:13;;;;;;;14.38;8.73;;;16.40;96.20;;;;;;5016001;28;20050;-74
2022/07/08 06:46:44;;;;;;;17.02;9.27;;;16.40;96.20;;;;;;4998185;28;20075;-74
2022/07/08 06:49:11;;;;;;;14.85;8.65;;;16.40;96.10;;;;;;5017441;28;20038;-74
2022/07/08 06:51:39;;;;;;;15.30;8.45;;;16.40;96.10;;;;;;4999930;28;20380;-74
2022/07/08 06:56:53;;;;;;;20.23;8.32;;;16.50;96.20;;;;;;5000323;28;20046;-74
2022/07/08 06:59:21;;;;;;;18.77;7.80;;;16.60;96.10;;;;;;5017336;28;20050;-74
2022/07/08 07:01:49;;;;;;;12.82;8.13;;;16.60;96.00;;;;;;5015803;28;20050;-74
2022/07/08 07:04:16;;;;;;;17.48;7.65;;;16.70;96.00;;;;;;5000219;28;20060;-74
2022/07/08 07:06:44;;;;;;;16.40;7.55;;;16.70;95.90;;;;;;4998990;28;20053;-74
2022/07/08 07:09:12;;;;;;;14.15;7.00;;;16.80;95.90;;;;;;5017290;28;20046;-74
2022/07/08 07:11:39;;;;;;;13.05;7.20;;;16.90;95.80;;;;;;4999543;28;20377;-74
2022/07/08 07:14:07;;;;;;;15.30;7.07;;;16.90;96.00;;;;;;5015866;28;20045;-74
2022/07/08 07:16:35;;;;;;;15.82;7.35;;;16.90;95.60;;;;;;4999899;28;20357;-74
2022/07/08 07:19:03;;;;;;;12.15;6.38;;;17.00;95.40;;;;;;4999337;28;20050;-74
2022/07/08 07:21:30;;;;;;;19.27;8.02;;;17.00;95.40;;;;;;4998422;28;20049;-74
2022/07/08 07:23:58;;;;;;;11.68;6.50;;;17.00;95.30;;;;;;5017152;28;20042;-74
2022/07/08 07:26:26;;;;;;;11.30;6.30;;;17.10;95.30;;;;;;5016699;28;20339;-74
2022/07/08 07:28:54;;;;;;;13.57;6.35;;;17.10;95.20;;;;;;4998125;28;20049;-74
2022/07/08 07:31:22;;;;;;;17.73;6.95;;;17.10;95.00;;;;;;4999072;28;20061;-74
2022/07/08 07:33:50;;;;;;;14.15;6.80;;;17.20;95.10;;;;;;5026187;28;20053;-74
2022/07/08 07:36:17;;;;;;;18.02;6.30;;;17.20;95.10;;;;;;5036109;28;20042;-74
2022/07/08 07:38:45;;;;;;;16.48;6.90;;;17.30;95.10;;;;;;5018933;28;20049;-74
2022/07/08 07:41:12;;;;;;;10.63;6.88;;;17.30;95.00;;;;;;5034856;28;20041;-74
2022/07/08 07:43:40;;;;;;;15.88;7.43;;;17.40;94.80;;;;;;5036139;28;20060;-74
2022/07/08 07:46:08;;;;;;;13.85;7.60;;;17.40;94.80;;;;;;5035849;28;20354;-74
2022/07/08 07:48:36;;;;;;;13.98;7.63;;;17.50;94.70;;;;;;5033915;28;20360;-74
2022/07/08 07:51:04;;;;;;;14.45;7.68;;;17.50;94.60;;;;;;5035294;28;20376;-74
2022/07/08 07:53:32;;;;;;;12.55;7.07;;;17.60;94.40;;;;;;5035185;28;20463;-74
2022/07/08 07:56:05;;;;;;;14.30;6.85;;;17.60;94.20;;;;;;5034714;28;20462;-74
2022/07/08 07:58:33;;;;;;;18.17;6.72;;;17.70;94.10;;;;;;5002121;28;20045;-74
2022/07/08 08:01:01;;;;;;;16.75;7.18;;;17.70;94.00;;;;;;5034398;28;20056;-74
2022/07/08 08:03:28;;;;;;;18.00;7.88;;;17.80;94.00;;;;;;5035239;28;20041;-74
2022/07/08 08:05:56;;;;;;;14.55;6.65;;;17.80;93.90;;;;;;5035564;28;20361;-74
2022/07/08 08:08:24;;;;;;;11.70;6.55;;;17.80;93.90;;;;;;5033570;28;20064;-74
2022/07/08 08:10:52;;;;;;;;;;;17.90;93.80;;;;;;5034856;28;20045;-74
2022/07/08 08:13:20;;;;;;;13.10;7.20;;;17.90;93.80;;;;;;5034288;28;19921;-74
2022/07/08 08:15:48;;;;;;;11.35;6.47;;;18.00;93.70;;;;;;5018077;28;20457;-74
2022/07/08 08:18:15;;;;;;;15.07;7.10;;;18.00;93.60;;;;;;5034819;28;20041;-74
2022/07/08 08:20:43;;;;;;;13.60;6.57;;;18.10;93.70;;;;;;5034510;28;20053;-74
2022/07/08 08:23:11;;;;;;;14.00;5.72;;;18.20;93.50;;;;;;5035245;28;20365;-74
2022/07/08 08:25:50;;;;;;;16.33;7.35;;;18.20;93.50;;;;;;5034639;28;20045;-74
2022/07/08 08:28:17;;;;;;;16.05;6.50;;;18.30;93.20;;;;;;5033260;28;20368;-74
2022/07/08 08:30:45;;;;;;;14.93;7.10;;;18.40;93.00;;;;;;5035326;28;20480;-74
2022/07/08 08:33:14;;;;;;;13.60;7.38;;;18.40;92.70;;;;;;5017711;28;20045;-74
2022/07/08 08:35:42;;;;;;;15.38;7.47;;;18.50;92.60;;;;;;5035297;28;20053;-74
2022/07/08 08:38:09;;;;;;;;;;;18.50;92.60;;;;;;5034563;28;20046;-74
2022/07/08 08:40:40;;;;;;;13.98;7.20;;;18.50;92.20;;;;;;5033820;28;19988;-74
2022/07/08 08:43:09;;;;;;;11.57;6.53;;;18.60;92.30;;;;;;5034324;28;20045;-74
2022/07/08 08:45:44;;;;;;;12.40;6.35;;;18.60;92.20;;;;;;5034156;28;20049;-74
2022/07/08 08:48:12;;;;;;;13.43;6.25;;;18.70;92.20;;;;;;5032926;28;20049;-74
2022/07/08 08:50:53;;;;;;;16.77;6.78;;;18.80;92.20;;;;;;5034985;28;20046;-74
2022/07/08 08:53:26;;;;;;;16.73;7.22;;;18.80;92.10;;;;;;5034354;28;20046;-74
2022/07/08 08:55:57;;;;;;;13.02;6.95;;;18.90;91.70;;;;;;5035129;28;20052;-74
2022/07/08 08:58:25;;;;;;;14.18;8.10;;;19.00;91.70;;;;;;5033835;28;20034;-74
2022/07/08 09:00:52;;;;;;;;;;;19.10;91.60;;;;;;5034086;28;20046;-74
2022/07/08 09:03:20;;;;;;;13.70;6.75;;;19.10;91.10;;;;;;5034819;28;20359;-74
2022/07/08 09:05:49;;;;;;;16.73;8.07;;;19.20;91.60;;;;;;5017707;28;20060;-74
2022/07/08 09:08:16;;;;;;;15.40;7.30;;;19.20;91.50;;;;;;5032886;28;20476;-74
2022/07/08 09:10:44;;;;;;;14.40;8.00;;;19.30;91.40;;;;;;5034669;28;20041;-74
2022/07/08 09:13:15;;;;;;;17.60;8.70;;;19.30;91.30;;;;;;5017559;28;20053;-74
2022/07/08 09:15:45;;;;;;;13.85;7.88;;;19.40;91.20;;;;;;5033854;28;20061;-74
2022/07/08 09:18:19;;;;;;;16.75;8.15;;;19.50;90.90;;;;;;5034184;28;20049;-74
2022/07/08 09:20:51;;;;;;;17.85;8.98;;;19.50;91.00;;;;;;5033719;28;20052;-74
2022/07/08 09:23:24;;;;;;;16.83;9.23;;;19.60;90.70;;;;;;5033876;28;20053;-74
2022/07/08 09:25:54;;;;;;;14.52;9.25;;;19.70;90.30;;;;;;5034438;28;20060;-74
2022/07/08 09:28:34;;;;;;;20.38;8.55;;;19.70;90.20;;;;;;5033275;28;20041;-74
2022/07/08 09:31:07;;;;;;;12.10;7.50;;;19.70;90.10;;;;;;5034172;28;20038;-74
2022/07/08 09:33:35;;;;;;;19.10;7.70;;;19.80;90.00;;;;;;5019731;28;20310;-74
2022/07/08 09:36:05;;;;;;;16.88;8.57;;;19.90;89.70;;;;;;4997649;28;20060;-74
2022/07/08 09:38:37;;;;;;;13.90;9.05;;;20.00;89.30;;;;;;4997599;28;20054;-74
2022/07/08 09:41:12;;;;;;;13.68;7.10;;;20.10;88.80;;;;;;5013715;28;20057;-74
2022/07/08 09:43:46;;;;;;;12.90;6.55;;;20.10;88.70;;;;;;4997823;28;20053;-74
2022/07/08 09:46:14;;;;;;;14.48;8.18;;;20.20;88.10;;;;;;5014438;28;20476;-74
2022/07/08 09:48:41;;;;;;;13.48;8.25;;;20.30;87.60;;;;;;4964106;28;20057;-74
2022/07/08 09:51:09;;;;;;;14.15;7.45;;;20.40;86.60;;;;;;5014235;28;20057;-74
2022/07/08 09:53:39;;;;;;;10.73;7.15;;;20.50;86.90;;;;;;4996207;28;20052;-74
2022/07/08 09:56:07;;;;;;;11.40;6.88;;;20.60;86.40;;;;;;5014378;28;20049;-74
2022/07/08 09:58:36;;;;;;;12.63;6.57;;;20.60;85.90;;;;;;4997638;28;20046;-74
2022/07/08 10:01:04;;;;;;;15.95;6.32;;;20.60;84.50;;;;;;4980234;28;20053;-74
2022/07/08 10:03:32;;;;;;;;;;;20.60;85.20;;;;;;5014842;28;20046;-74
2022/07/08 10:06:02;;;;;;;12.05;5.97;;;20.70;85.50;;;;;;4997808;28;19944;-74
2022/07/08 10:08:29;;;;;;;;;;;20.70;84.50;;;;;;5013641;28;20480;-74
2022/07/08 10:10:58;;;;;;;13.50;6.60;;;20.80;84.30;;;;;;5014305;28;19929;-74
2022/07/08 10:13:27;;;;;;;11.65;5.60;;;20.90;84.00;;;;;;4980096;28;20461;-75
2022/07/08 10:16:00;;;;;;;9.63;5.40;;;20.90;83.30;;;;;;5014288;28;20049;-74
2022/07/08 10:18:36;;;;;;;12.75;5.78;;;20.90;83.80;;;;;;5015681;28;20373;-74
2022/07/08 10:21:06;;;;;;;15.88;6.20;;;21.00;83.30;;;;;;5016886;28;20069;-74
2022/07/08 10:23:38;;;;;;;10.73;6.32;;;21.10;82.40;;;;;;5000591;28;20065;-75
2022/07/08 10:26:07;;;;;;;11.90;5.65;;;21.20;82.20;;;;;;5000747;28;20057;-74
2022/07/08 10:28:38;;;;;;;10.15;5.10;;;21.20;82.20;;;;;;5016455;28;20054;-74
2022/07/08 10:31:25;;;;;;;9.48;5.30;;;21.30;82.30;;;;;;5000980;28;20464;-75
2022/07/08 10:34:00;;;;;;;10.75;5.50;;;21.30;81.00;;;;;;5028009;28;20050;-74
2022/07/08 10:36:28;;;;;;;11.00;4.75;;;21.50;81.60;;;;;;5037402;28;20049;-74
2022/07/08 10:38:55;;;;;;;8.00;4.15;;;21.50;82.10;;;;;;5036335;28;20046;-75
2022/07/08 10:41:26;;;;;;;12.77;4.05;;;21.60;81.50;;;;;;5036064;28;20060;-75
2022/07/08 10:44:00;;;;;;;12.27;4.60;;;21.70;81.50;;;;;;5020449;28;20064;-74
2022/07/08 10:46:28;;;;;;;10.93;4.65;;;21.70;80.50;;;;;;5037122;28;20372;-74
2022/07/08 10:48:56;;;;;;;10.50;4.28;;;21.80;80.70;;;;;;5035266;28;20045;-75
2022/07/08 10:51:24;;;;;;;13.07;4.47;;;21.80;79.80;;;;;;5036872;28;20041;-75
2022/07/08 10:54:24;;;;;;;6.65;4.03;;;21.90;78.60;;;;;;5036382;28;20045;-74
2022/07/08 10:56:58;;;;;;;10.02;4.70;;;21.90;78.40;;;;;;5036973;28;20283;-74
2022/07/08 10:59:27;;;;;;;7.32;3.92;;;21.90;78.70;;;;;;5036160;28;20045;-75
2022/07/08 11:02:15;;;;;;;8.60;3.97;;;22.00;78.60;;;;;;5034721;28;20045;-74
2022/07/08 11:04:47;;;;;;;7.93;4.05;;;22.00;77.70;;;;;;5020082;28;20060;-74
2022/07/08 11:07:22;;;;;;;8.52;4.45;;;22.10;77.90;;;;;;5035214;28;20050;-74
2022/07/08 11:10:13;;;;;;;11.45;5.40;;;22.20;78.60;;;;;;5036813;28;20057;-74
2022/07/08 11:12:47;;;;;;;10.30;5.18;;;22.20;77.80;;;;;;5036306;28;20040;-74
2022/07/08 11:15:17;;;;;;;10.50;5.10;;;22.30;78.40;;;;;;5034711;28;20041;-74
2022/07/08 11:17:50;;;;;;;14.05;5.15;;;22.40;78.10;;;;;;5036075;28;20041;-74
2022/07/08 11:20:18;;;;;;;9.93;4.60;;;22.40;78.20;;;;;;5035643;28;20048;-74
2022/07/08 11:22:46;;;;;;;;;;;22.40;78.10;;;;;;5035728;28;20060;-74
2022/07/08 11:25:15;;;;;;;10.95;5.20;;;22.50;78.30;;;;;;5036021;28;19920;-74
2022/07/08 11:27:43;;;;;;;9.93;4.90;;;22.50;78.00;;;;;;5018054;28;20053;-74
2022/07/08 11:30:13;;;;;;;11.82;5.05;;;22.60;77.70;;;;;;5034817;28;20057;-74
2022/07/08 11:32:42;;;;;;;11.50;5.32;;;22.60;77.10;;;;;;5029734;28;20453;-74
2022/07/08 11:35:10;;;;;;;10.90;5.22;;;22.60;77.60;;;;;;4997934;28;20049;-75
2022/07/08 11:37:41;;;;;;;9.93;5.50;;;22.70;77.40;;;;;;4999184;28;20046;-75
2022/07/08 11:40:10;;;;;;;13.00;5.88;;;22.80;77.60;;;;;;4982377;28;20504;-75
2022/07/08 11:42:40;;;;;;;11.63;5.18;;;22.90;77.70;;;;;;4999234;28;20065;-75
2022/07/08 11:45:10;;;;;;;14.43;6.57;;;22.90;77.50;;;;;;5016550;28;20050;-74
2022/07/08 11:47:39;;;;;;;13.13;6.47;;;23.00;77.40;;;;;;4997891;28;20385;-74
2022/07/08 11:50:08;;;;;;;11.20;5.55;;;23.00;77.40;;;;;;5016221;28;20108;-74
2022/07/08 11:52:36;;;;;;;10.18;5.60;;;23.00;77.70;;;;;;5016450;28;20050;-74
2022/07/08 11:55:07;;;;;;;8.82;4.38;;;23.10;77.90;;;;;;5015086;28;20061;-74
2022/07/08 11:57:43;;;;;;;9.45;4.00;;;23.10;77.60;;;;;;4998826;28;20046;-75
2022/07/08 12:00:11;;;;;;;8.45;3.97;;;23.20;77.10;;;;;;4997825;28;20037;-75
2022/07/08 12:02:39;;;;;;;11.07;4.28;;;23.40;76.90;;;;;;4999296;28;20073;-75
2022/07/08 12:05:09;;;;;;;9.02;4.20;;;23.60;76.40;;;;;;5016165;28;20037;-75
2022/07/08 12:07:38;;;;;;;10.02;4.45;;;23.60;75.90;;;;;;5014657;28;20042;-75
2022/07/08 12:10:06;;;;;;;7.88;4.25;;;23.80;75.60;;;;;;4998647;28;20054;-74
2022/07/08 12:12:35;;;;;;;8.95;4.22;;;23.80;75.60;;;;;;4998602;28;20049;-75
2022/07/08 12:15:14;;;;;;;10.20;4.55;;;23.80;75.80;;;;;;5014432;28;20053;-75
2022/07/08 12:17:42;;;;;;;9.00;3.15;;;23.90;74.60;;;;;;5016038;28;20050;-75
2022/07/08 12:20:10;;;;;;;;;;;24.00;75.60;;;;;;5015227;28;20061;-75
2022/07/08 12:22:48;;;;;;;7.55;3.65;;;24.00;73.50;;;;;;4998384;28;19921;-74
2022/07/08 12:25:18;;;;;;;10.73;4.05;;;24.10;75.60;;;;;;5015458;28;20049;-75
2022/07/08 12:28:02;;;;;;;10.00;4.20;;;24.20;74.60;;;;;;5014630;28;20144;-75
2022/07/08 12:30:31;;;;;;;11.93;4.30;;;24.30;74.30;;;;;;5015919;28;20046;-74
2022/07/08 12:33:01;;;;;;;8.50;3.67;;;24.40;74.30;;;;;;5012449;28;20045;-75
2022/07/08 12:35:46;;;;;;;7.30;3.50;;;24.50;73.70;;;;;;5035177;28;20041;-75
2022/07/08 12:38:14;;;;;;;6.95;3.28;;;24.50;74.20;;;;;;5035043;28;20045;-75
2022/07/08 12:40:43;;;;;;;7.00;3.00;;;24.40;74.40;;;;;;5033013;28;20065;-74
2022/07/08 12:43:13;;;;;;;5.15;3.22;;;24.50;74.90;;;;;;5035434;28;20045;-74
2022/07/08 12:45:41;;;;;;;8.15;3.20;;;24.60;74.00;;;;;;5017890;28;20053;-74
2022/07/08 12:48:09;;;;;;;8.77;3.10;;;24.70;73.80;;;;;;5032990;28;20487;-74
2022/07/08 12:50:36;;;;;;;7.15;3.58;;;24.70;73.70;;;;;;5034878;28;20364;-74
2022/07/08 12:53:04;;;;;;;7.72;3.42;;;24.80;73.20;;;;;;5035181;28;20042;-74
2022/07/08 12:55:32;;;;;;;8.85;3.35;;;24.70;73.40;;;;;;5033828;28;20045;-74
2022/07/08 12:57:59;;;;;;;7.47;2.90;;;24.80;73.40;;;;;;5034220;28;20060;-74